»·PEaware :: AAL1560 KPHX-KELP

AAL1560 :: KPHX-KELP

FLIGHT INFORMATION

Flight Status: Arrived
Operator:
American Airlines
More flights by this operator :: More flights under this callsign
Pilot: Dan S. (33635)
Aircraft: MCDONNELL-DOUGLAS MD-82
(MD82)
More flights by this aircraft type
Origin: KPHX Phoenix Sky Harbor Intl
United States
Destination: KELP El Paso Intl
United States
More flights between these airports :: More routes between these airports
Route: ECLPS1 PHASE TEEES MOLLY5
File this flight plan on PilotEdge
Remarks: RMK / SIMBRIEF
Altitude:
(Current/Filed)
31,000ft
Speed:
(Current/Filed)
464kts
Departed: 14-Sep-22 11:59 AM
Arrived: 14-Sep-22 12:48 PM
Distance/Time
Traveled:
300nm/0:49
Distance/Time
To Go:
Arrived

Flight Plot

Page will automatically refresh every two minutes.

Flight plan parsing failed; only flown route is shown


Map Options




Map Legend


Flown Route
Filed Route
Departure Airport
Arrival Airport
Navaid (VOR, NDB)
Fix

Horizontal Profiles

Position Reports

Time Latitude Longitude Heading Altitude Ground
Speed
14-Sep-22 11:26 33.437853 -111.996175 269 1140ft 0kts
14-Sep-22 11:27 33.437853 -111.996175 269 1140ft 0kts
14-Sep-22 11:28 33.437853 -111.996175 269 1140ft 0kts
14-Sep-22 11:29 33.437853 -111.996175 269 1140ft 0kts
14-Sep-22 11:30 33.437853 -111.996175 269 1140ft 0kts
14-Sep-22 11:31 33.437853 -111.996175 269 1140ft 0kts
14-Sep-22 11:32 33.437853 -111.996175 269 1140ft 0kts
14-Sep-22 11:33 33.437853 -111.996175 269 1140ft 0kts
14-Sep-22 11:34 33.437853 -111.996175 269 1140ft 0kts
14-Sep-22 11:35 33.437853 -111.996175 269 1140ft 0kts
14-Sep-22 11:36 33.437853 -111.996175 269 1140ft 0kts
14-Sep-22 11:37 33.437853 -111.996175 269 1140ft 0kts
14-Sep-22 11:38 33.437853 -111.996175 269 1140ft 0kts
14-Sep-22 11:39 33.437853 -111.996175 269 1140ft 0kts
14-Sep-22 11:40 33.437853 -111.996175 269 1140ft 0kts
14-Sep-22 11:41 33.437853 -111.996175 269 1140ft 0kts
14-Sep-22 11:42 33.437853 -111.996175 269 1140ft 0kts
14-Sep-22 11:43 33.437807 -111.995814 335 1141ft 2kts
14-Sep-22 11:44 33.437681 -111.995789 0 1144ft 0kts
14-Sep-22 11:45 33.437681 -111.995789 0 1144ft 0kts
14-Sep-22 11:46 33.437681 -111.995789 0 1144ft 0kts
14-Sep-22 11:47 33.437681 -111.995789 0 1144ft 0kts
14-Sep-22 11:48 33.438209 -111.995786 0 1143ft 6kts
14-Sep-22 11:49 33.439043 -111.997936 270 1142ft 13kts
14-Sep-22 11:50 33.439052 -112.003535 269 1135ft 16kts
14-Sep-22 11:51 33.439014 -112.009010 269 1133ft 15kts
14-Sep-22 11:52 33.439018 -112.014618 270 1131ft 17kts
14-Sep-22 11:53 33.439016 -112.020145 270 1125ft 17kts
14-Sep-22 11:54 33.439031 -112.025640 270 1121ft 14kts
14-Sep-22 11:55 33.439411 -112.029651 346 1120ft 5kts
14-Sep-22 11:56 33.439559 -112.029678 355 1115ft 1kts
14-Sep-22 11:57 33.440106 -112.029693 358 1117ft 9kts
14-Sep-22 11:58 33.440875 -112.025848 90 1121ft 57kts
14-Sep-22 11:59 33.440819 -111.980302 90 1817ft 178kts
14-Sep-22 12:00 33.437812 -111.916142 96 3615ft 210kts
14-Sep-22 12:01 33.414019 -111.843492 137 4960ft 265kts
14-Sep-22 12:02 33.358037 -111.782103 140 7145ft 278kts
14-Sep-22 12:03 33.300907 -111.717029 137 9336ft 288kts
14-Sep-22 12:04 33.240298 -111.646121 137 10532ft 338kts
14-Sep-22 12:05 33.169582 -111.564132 137 12518ft 360kts
14-Sep-22 12:06 33.095565 -111.478800 137 14460ft 378kts
14-Sep-22 12:07 33.029808 -111.377244 124 16380ft 398kts
14-Sep-22 12:08 32.968885 -111.263911 125 18212ft 416kts
14-Sep-22 12:09 32.904024 -111.146631 125 19957ft 430kts
14-Sep-22 12:10 32.837433 -111.025837 125 21618ft 445kts
14-Sep-22 12:11 32.768179 -110.901245 125 23284ft 459kts
14-Sep-22 12:12 32.697050 -110.773031 125 24739ft 469kts
14-Sep-22 12:13 32.638739 -110.633228 111 26078ft 482kts
14-Sep-22 12:14 32.599954 -110.478728 103 26785ft 507kts
14-Sep-22 12:15 32.564672 -110.315215 104 28060ft 514kts
14-Sep-22 12:16 32.528103 -110.151876 105 29660ft 511kts
14-Sep-22 12:17 32.491264 -109.989337 105 30792ft 514kts
14-Sep-22 12:18 32.454323 -109.826773 105 30913ft 508kts
14-Sep-22 12:19 32.425145 -109.663808 97 30921ft 506kts
14-Sep-22 12:20 32.405542 -109.498715 97 30905ft 508kts
14-Sep-22 12:21 32.384078 -109.333447 97 30903ft 508kts
14-Sep-22 12:22 32.362837 -109.168423 97 30920ft 508kts
14-Sep-22 12:23 32.345815 -109.003082 94 30912ft 506kts
14-Sep-22 12:24 32.329819 -108.837600 95 30930ft 506kts
14-Sep-22 12:25 32.313193 -108.672216 95 30932ft 506kts
14-Sep-22 12:26 32.295717 -108.507664 95 30933ft 506kts
14-Sep-22 12:27 32.279100 -108.342199 95 30934ft 506kts
14-Sep-22 12:28 32.261563 -108.176955 96 30932ft 506kts
14-Sep-22 12:29 32.242185 -108.012554 96 30939ft 507kts
14-Sep-22 12:30 32.223384 -107.847641 95 30929ft 506kts
14-Sep-22 12:31 32.204261 -107.682938 96 31045ft 509kts
14-Sep-22 12:32 32.184854 -107.517259 96 27706ft 505kts
14-Sep-22 12:33 32.165964 -107.355389 97 24462ft 484kts
14-Sep-22 12:34 32.147193 -107.201583 98 21329ft 460kts
14-Sep-22 12:35 32.129822 -107.056545 98 18529ft 435kts
14-Sep-22 12:36 32.108606 -106.919715 106 15930ft 408kts
14-Sep-22 12:38 32.078540 -106.789868 106 13877ft 403kts
14-Sep-22 12:39 32.048590 -106.665614 107 11935ft 366kts
14-Sep-22 12:40 32.024242 -106.566130 107 9959ft 278kts
14-Sep-22 12:41 32.003453 -106.484809 119 8972ft 251kts
14-Sep-22 12:42 31.964929 -106.417001 127 8102ft 244kts
14-Sep-22 12:43 31.926572 -106.353214 126 7572ft 233kts
14-Sep-22 12:44 31.890190 -106.291365 126 6739ft 227kts
14-Sep-22 12:45 31.833684 -106.274064 191 5925ft 213kts
14-Sep-22 12:46 31.797480 -106.305876 272 5036ft 149kts
14-Sep-22 12:47 31.800316 -106.353955 272 4113ft 151kts
14-Sep-22 12:48 31.801799 -106.384351 271 3939ft 16kts
14-Sep-22 12:49 31.800633 -106.385046 184 3941ft 10kts
14-Sep-22 12:50 31.799908 -106.388138 270 3937ft 12kts
14-Sep-22 12:51 31.801335 -106.392499 279 3933ft 14kts
14-Sep-22 12:52 31.801076 -106.396504 201 3930ft 5kts
14-Sep-22 12:53 31.800953 -106.396559 200 3929ft 0kts
14-Sep-22 12:54 31.800953 -106.396559 200 3929ft 0kts
14-Sep-22 12:55 31.800953 -106.396559 200 3929ft 0kts

Navigation Log

Ident Type
Flight plan parsing failed, navigation log unavailable